Time;durP1;ratioP1;P1;durP2;ratioP2;P2;SDS_P1;SDS_P2;PMS_P1;PMS_P2;Temp;Humidity;BMP_temperature;BMP_pressure;BME280_temperature;BME280_humidity;BME280_pressure;Samples;Min_cycle;Max_cycle;Signal;HPM_P1;HPM_P2
2023/10/31 00:02:15;;;;;;;9.10;8.80;;;12.70;99.90;;;;;;5040723;28;20248;-82
2023/10/31 00:04:42;;;;;;;9.20;8.90;;;12.70;99.90;;;;;;5041090;28;20227;-82
2023/10/31 00:07:09;;;;;;;9.10;8.80;;;12.70;99.90;;;;;;5043769;28;20318;-80
2023/10/31 00:09:39;;;;;;;9.10;8.80;;;12.70;99.90;;;;;;5045002;28;20251;-82
2023/10/31 00:12:07;;;;;;;9.10;8.80;;;12.70;99.90;;;;;;5044481;28;20231;-82
2023/10/31 00:14:35;;;;;;;8.97;8.67;;;12.60;99.90;;;;;;5045645;28;20219;-80
2023/10/31 00:17:03;;;;;;;9.00;8.70;;;12.60;99.90;;;;;;5048659;28;20231;-81
2023/10/31 00:19:30;;;;;;;8.90;8.60;;;12.60;99.90;;;;;;5047591;28;20244;-80
2023/10/31 00:21:57;;;;;;;8.90;8.60;;;12.70;99.90;;;;;;5046587;28;20239;-84
2023/10/31 00:24:24;;;;;;;8.60;8.40;;;12.50;99.90;;;;;;5046130;28;20246;-82
2023/10/31 00:26:51;;;;;;;9.00;8.70;;;12.50;99.90;;;;;;5046068;28;20231;-83
2023/10/31 00:29:18;;;;;;;8.40;8.20;;;12.50;99.90;;;;;;5047276;28;20243;-84
2023/10/31 00:31:47;;;;;;;8.30;8.10;;;12.50;99.90;;;;;;5047117;28;20243;-82
2023/10/31 00:34:14;;;;;;;8.40;8.20;;;12.40;99.90;;;;;;5047867;28;20239;-86
2023/10/31 00:36:41;;;;;;;8.53;8.33;;;12.50;99.90;;;;;;5047997;28;20264;-83
2023/10/31 00:39:08;;;;;;;8.90;8.60;;;12.50;99.90;;;;;;5048114;28;20243;-82
2023/10/31 00:41:36;;;;;;;9.00;8.70;;;12.50;99.90;;;;;;5047471;28;20235;-83
2023/10/31 00:44:03;;;;;;;9.17;8.87;;;12.50;99.90;;;;;;5046643;28;20239;-83
2023/10/31 00:46:30;;;;;;;9.20;8.90;;;12.50;99.90;;;;;;5047143;28;20241;-82
2023/10/31 00:48:59;;;;;;;9.03;8.73;;;12.50;99.90;;;;;;5046511;28;20232;-84
2023/10/31 00:51:26;;;;;;;9.10;8.80;;;12.50;99.90;;;;;;5046298;28;20228;-84
2023/10/31 00:53:53;;;;;;;9.20;8.90;;;12.50;99.90;;;;;;5046007;28;20254;-84
2023/10/31 00:56:20;;;;;;;9.20;8.90;;;12.50;99.90;;;;;;5046721;28;20315;-86
2023/10/31 00:58:47;;;;;;;9.20;8.90;;;12.50;99.90;;;;;;5047052;28;20273;-83
2023/10/31 01:01:15;;;;;;;9.00;8.70;;;12.50;99.90;;;;;;5044890;28;20251;-84
2023/10/31 01:03:43;;;;;;;9.30;9.00;;;12.50;99.90;;;;;;5045081;28;20290;-82
2023/10/31 01:06:11;;;;;;;9.20;8.90;;;12.50;99.90;;;;;;5045050;28;20227;-82
2023/10/31 01:08:38;;;;;;;9.00;8.70;;;12.50;99.90;;;;;;5034691;28;20336;-82
2023/10/31 01:11:05;;;;;;;9.00;8.70;;;12.40;99.90;;;;;;5033307;28;20251;-82
2023/10/31 01:13:32;;;;;;;9.20;8.90;;;12.40;99.90;;;;;;5033137;28;20231;-81
2023/10/31 01:15:59;;;;;;;8.90;8.60;;;12.40;99.90;;;;;;5041101;28;20289;-82
2023/10/31 01:18:27;;;;;;;8.90;8.60;;;12.40;99.90;;;;;;5012709;28;20286;-82
2023/10/31 01:20:54;;;;;;;8.90;8.60;;;12.30;99.90;;;;;;5044152;28;20254;-82
2023/10/31 01:23:22;;;;;;;8.97;8.67;;;12.30;99.90;;;;;;5035239;28;20374;-82
2023/10/31 01:25:50;;;;;;;8.80;8.60;;;12.30;99.90;;;;;;5035245;28;20231;-82
2023/10/31 01:28:17;;;;;;;8.50;8.30;;;12.30;99.90;;;;;;5032569;28;20242;-82
2023/10/31 01:30:44;;;;;;;8.87;8.57;;;12.20;99.90;;;;;;5024495;28;20349;-82
2023/10/31 01:33:11;;;;;;;8.83;8.53;;;12.30;99.90;;;;;;5032670;28;20232;-82
2023/10/31 01:35:39;;;;;;;8.83;8.57;;;12.30;99.90;;;;;;5024881;28;20290;-80
2023/10/31 01:38:06;;;;;;;8.60;8.40;;;12.20;99.90;;;;;;5025778;28;20228;-81
2023/10/31 01:40:34;;;;;;;8.93;8.63;;;12.30;99.90;;;;;;5035592;28;20243;-82
2023/10/31 01:43:01;;;;;;;8.60;8.40;;;12.30;99.90;;;;;;5035814;28;20227;-81
2023/10/31 01:45:29;;;;;;;8.90;8.60;;;12.20;99.90;;;;;;5044112;28;20321;-81
2023/10/31 01:47:56;;;;;;;9.10;8.80;;;12.20;99.90;;;;;;5043881;28;20235;-82
2023/10/31 01:50:24;;;;;;;9.10;8.80;;;12.10;99.90;;;;;;5044189;28;20236;-81
2023/10/31 01:52:52;;;;;;;9.10;8.80;;;12.10;99.90;;;;;;5043869;28;20232;-81
2023/10/31 01:55:22;;;;;;;8.67;8.47;;;12.10;99.90;;;;;;5043754;28;20235;-82
2023/10/31 01:57:50;;;;;;;8.97;8.67;;;12.10;99.90;;;;;;5045625;28;20314;-81
2023/10/31 02:00:18;;;;;;;8.90;8.60;;;12.10;99.90;;;;;;5044675;28;20239;-81
2023/10/31 02:02:46;;;;;;;9.00;8.70;;;12.10;99.90;;;;;;5043536;28;20231;-82
2023/10/31 02:05:13;;;;;;;8.70;8.50;;;12.00;99.90;;;;;;5044123;28;20260;-81
2023/10/31 02:07:40;;;;;;;9.00;8.70;;;12.00;99.90;;;;;;5043352;28;20310;-82
2023/10/31 02:10:08;;;;;;;9.23;8.93;;;12.10;99.90;;;;;;5043249;28;20223;-81
2023/10/31 02:12:38;;;;;;;9.10;8.80;;;12.00;99.90;;;;;;5042943;28;20215;-81
2023/10/31 02:15:09;;;;;;;9.00;8.70;;;12.00;99.90;;;;;;5042956;28;20230;-83
2023/10/31 02:17:36;;;;;;;9.30;9.00;;;12.00;99.90;;;;;;5043395;28;20282;-82
2023/10/31 02:20:04;;;;;;;9.10;8.80;;;12.00;99.90;;;;;;5043311;28;20231;-81
2023/10/31 02:22:33;;;;;;;9.10;8.80;;;12.00;99.90;;;;;;5032840;28;20254;-81
2023/10/31 02:25:00;;;;;;;9.00;8.70;;;12.00;99.90;;;;;;5031526;28;20228;-81
2023/10/31 02:27:27;;;;;;;9.20;8.90;;;12.00;99.90;;;;;;5031496;28;20259;-81
2023/10/31 02:29:54;;;;;;;9.37;9.07;;;11.90;99.90;;;;;;5030357;28;20224;-81
2023/10/31 02:32:21;;;;;;;9.30;9.00;;;11.90;99.90;;;;;;5022702;28;20232;-81
2023/10/31 02:34:50;;;;;;;9.47;9.17;;;11.90;99.90;;;;;;5022716;28;20310;-81
2023/10/31 02:37:18;;;;;;;9.00;8.70;;;11.90;99.90;;;;;;5023710;28;20319;-81
2023/10/31 02:39:46;;;;;;;9.10;8.80;;;11.80;99.90;;;;;;5023280;28;20275;-81
2023/10/31 02:42:13;;;;;;;8.93;8.70;;;11.80;99.90;;;;;;5023329;28;20251;-82
2023/10/31 02:44:41;;;;;;;9.17;8.87;;;11.80;99.90;;;;;;5023375;28;20275;-81
2023/10/31 02:47:08;;;;;;;9.07;8.77;;;11.80;99.90;;;;;;5023620;28;20263;-81
2023/10/31 02:49:35;;;;;;;9.40;9.10;;;11.80;99.90;;;;;;5023398;28;20232;-81
2023/10/31 02:52:02;;;;;;;9.63;9.33;;;11.80;99.90;;;;;;5023138;28;20220;-81
2023/10/31 02:54:30;;;;;;;9.40;9.10;;;11.80;99.90;;;;;;5022280;28;20232;-81
2023/10/31 02:56:59;;;;;;;9.20;8.90;;;11.80;99.90;;;;;;5023383;28;20310;-81
2023/10/31 02:59:26;;;;;;;9.20;8.90;;;11.80;99.90;;;;;;5022735;28;20314;-82
2023/10/31 03:01:54;;;;;;;9.27;8.97;;;11.70;99.90;;;;;;5023401;28;20236;-81
2023/10/31 03:04:21;;;;;;;9.37;9.07;;;11.70;99.90;;;;;;5023804;28;20232;-81
2023/10/31 03:06:48;;;;;;;9.70;9.40;;;11.60;99.90;;;;;;5023185;28;20232;-81
2023/10/31 03:09:15;;;;;;;9.60;9.30;;;11.60;99.90;;;;;;5023146;28;20271;-81
2023/10/31 03:11:42;;;;;;;9.60;9.30;;;11.60;99.90;;;;;;5024031;28;20244;-81
2023/10/31 03:14:11;;;;;;;9.60;9.30;;;11.60;99.90;;;;;;5029672;28;20228;-82
2023/10/31 03:16:38;;;;;;;9.90;9.60;;;11.60;99.90;;;;;;5039874;28;20235;-81
2023/10/31 03:19:06;;;;;;;9.70;9.40;;;11.60;99.90;;;;;;5033889;28;20240;-81
2023/10/31 03:21:33;;;;;;;9.60;9.30;;;11.60;99.90;;;;;;5032141;28;20259;-80
2023/10/31 03:24:00;;;;;;;9.93;9.63;;;11.60;99.90;;;;;;5034702;28;20236;-80
2023/10/31 03:26:28;;;;;;;9.80;9.50;;;11.50;99.90;;;;;;5011036;28;20297;-81
2023/10/31 03:28:57;;;;;;;9.90;9.60;;;11.50;99.90;;;;;;5042441;28;20278;-81
2023/10/31 03:31:25;;;;;;;9.97;9.67;;;11.50;99.90;;;;;;5042281;28;20243;-81
2023/10/31 03:33:53;;;;;;;9.80;9.50;;;11.50;99.90;;;;;;5041907;28;20235;-81
2023/10/31 03:36:20;;;;;;;9.67;9.37;;;11.40;99.90;;;;;;5041819;28;20237;-81
2023/10/31 03:38:48;;;;;;;9.90;9.60;;;11.40;99.90;;;;;;5041955;28;20216;-81
2023/10/31 03:41:14;;;;;;;9.77;9.47;;;11.40;99.90;;;;;;5045066;28;20258;-81
2023/10/31 03:43:41;;;;;;;9.80;9.50;;;11.40;99.90;;;;;;5045733;28;20235;-80
2023/10/31 03:46:08;;;;;;;9.90;9.60;;;11.40;99.90;;;;;;5046335;28;20254;-81
2023/10/31 03:48:37;;;;;;;9.97;9.67;;;11.20;99.90;;;;;;5045698;28;20339;-80
2023/10/31 03:51:05;;;;;;;9.87;9.57;;;11.20;99.90;;;;;;5046119;28;20219;-80
2023/10/31 03:53:32;;;;;;;9.90;9.60;;;11.10;99.90;;;;;;5046169;28;20223;-80
2023/10/31 03:56:00;;;;;;;10.03;9.73;;;11.10;99.90;;;;;;5045336;28;20251;-80
2023/10/31 03:58:27;;;;;;;9.90;9.60;;;11.00;99.90;;;;;;5045468;28;20241;-82
2023/10/31 04:00:55;;;;;;;9.97;9.67;;;11.00;99.90;;;;;;5045800;28;20319;-80
2023/10/31 04:03:22;;;;;;;9.87;9.57;;;11.00;99.90;;;;;;5046567;28;20235;-81
2023/10/31 04:05:50;;;;;;;9.60;9.30;;;10.90;99.90;;;;;;5045358;28;20271;-80
2023/10/31 04:08:17;;;;;;;9.70;9.40;;;10.90;99.90;;;;;;5045082;28;20220;-80
2023/10/31 04:10:45;;;;;;;9.50;9.20;;;10.90;99.90;;;;;;5047980;28;20228;-81
2023/10/31 04:13:12;;;;;;;9.40;9.10;;;10.90;99.90;;;;;;5047173;28;20297;-80
2023/10/31 04:15:39;;;;;;;9.60;9.30;;;10.80;99.90;;;;;;5057735;28;20223;-79
2023/10/31 04:18:06;;;;;;;9.70;9.40;;;10.90;99.90;;;;;;5051708;28;20223;-80
2023/10/31 04:20:33;;;;;;;9.90;9.60;;;10.80;99.90;;;;;;5044998;28;20240;-80
2023/10/31 04:23:01;;;;;;;9.50;9.20;;;10.80;99.90;;;;;;5043990;28;20239;-80
2023/10/31 04:25:29;;;;;;;9.50;9.20;;;10.80;99.90;;;;;;5044603;28;20259;-80
2023/10/31 04:27:56;;;;;;;9.37;9.07;;;10.80;99.90;;;;;;5059142;28;20220;-81
2023/10/31 04:30:23;;;;;;;9.33;9.03;;;10.80;99.90;;;;;;5050975;28;20232;-80
2023/10/31 04:32:50;;;;;;;9.23;8.93;;;10.80;99.90;;;;;;5047831;28;21045;-80
2023/10/31 04:35:18;;;;;;;9.20;8.90;;;10.70;99.90;;;;;;5052073;28;20258;-80
2023/10/31 04:37:45;;;;;;;9.23;8.93;;;10.70;99.90;;;;;;5052555;28;20228;-79
2023/10/31 04:40:14;;;;;;;9.50;9.20;;;10.70;99.90;;;;;;5055081;28;20215;-79
2023/10/31 04:42:41;;;;;;;9.40;9.10;;;10.70;99.90;;;;;;5048403;28;20266;-80
2023/10/31 04:45:10;;;;;;;9.30;9.00;;;10.60;99.90;;;;;;5044097;28;20298;-80
2023/10/31 04:47:37;;;;;;;9.57;9.27;;;10.60;99.90;;;;;;5044709;28;20266;-80
2023/10/31 04:50:05;;;;;;;9.13;8.87;;;10.60;99.90;;;;;;5043835;28;20212;-80
2023/10/31 04:52:32;;;;;;;9.27;8.97;;;10.60;99.90;;;;;;5043071;28;20307;-81
2023/10/31 04:54:59;;;;;;;9.10;8.80;;;10.60;99.90;;;;;;5043647;28;20556;-80
2023/10/31 04:57:28;;;;;;;9.20;8.90;;;10.60;99.90;;;;;;5043559;28;20235;-80
2023/10/31 04:59:57;;;;;;;9.33;9.03;;;10.60;99.90;;;;;;5043958;28;20231;-81
2023/10/31 05:02:24;;;;;;;9.50;9.20;;;10.60;99.90;;;;;;5043067;28;20247;-80
2023/10/31 05:04:51;;;;;;;9.50;9.20;;;10.60;99.90;;;;;;5044177;28;20235;-80
2023/10/31 05:07:18;;;;;;;9.30;9.00;;;10.50;99.90;;;;;;5043308;28;20287;-81
2023/10/31 05:09:45;;;;;;;9.30;9.00;;;10.50;99.90;;;;;;5044411;28;20211;-81
2023/10/31 05:12:13;;;;;;;8.90;8.70;;;10.50;99.90;;;;;;5043218;28;20239;-80
2023/10/31 05:14:42;;;;;;;9.20;8.90;;;10.50;99.90;;;;;;5044606;28;20228;-82
2023/10/31 05:17:09;;;;;;;8.80;8.60;;;10.50;99.90;;;;;;5045920;28;20232;-80
2023/10/31 05:19:36;;;;;;;8.90;8.70;;;10.40;99.90;;;;;;5046478;28;20355;-81
2023/10/31 05:22:04;;;;;;;9.20;8.90;;;10.50;99.90;;;;;;5045372;28;20243;-80
2023/10/31 05:24:32;;;;;;;9.20;8.90;;;10.40;99.90;;;;;;5045963;28;20227;-80
2023/10/31 05:26:59;;;;;;;9.40;9.10;;;10.40;99.90;;;;;;5046402;28;20235;-83
2023/10/31 05:29:26;;;;;;;9.33;9.03;;;10.40;99.90;;;;;;5045885;28;20227;-82
2023/10/31 05:31:55;;;;;;;9.10;8.80;;;10.30;99.90;;;;;;5044905;28;20235;-83
2023/10/31 05:34:22;;;;;;;9.20;8.90;;;10.30;99.90;;;;;;5044521;28;20270;-83
2023/10/31 05:36:49;;;;;;;9.10;8.80;;;10.30;99.90;;;;;;5045496;28;20223;-81
2023/10/31 05:39:16;;;;;;;9.30;9.00;;;10.20;99.90;;;;;;5045483;28;20215;-82
2023/10/31 05:41:44;;;;;;;9.20;8.90;;;10.30;99.90;;;;;;5046105;28;20239;-82
2023/10/31 05:44:11;;;;;;;9.50;9.20;;;10.20;99.90;;;;;;5046781;28;20231;-81
2023/10/31 05:46:40;;;;;;;9.40;9.10;;;10.20;99.90;;;;;;5046681;28;20223;-82
2023/10/31 05:49:09;;;;;;;9.40;9.10;;;10.30;99.90;;;;;;5046750;28;20223;-82
2023/10/31 05:51:37;;;;;;;9.50;9.20;;;10.20;99.90;;;;;;5045962;28;20240;-82
2023/10/31 05:54:05;;;;;;;9.87;9.57;;;10.20;99.90;;;;;;5046689;28;20258;-82
2023/10/31 05:56:32;;;;;;;10.10;9.80;;;10.20;99.90;;;;;;5046090;28;20255;-81
2023/10/31 05:58:59;;;;;;;9.80;9.50;;;10.20;99.90;;;;;;5048632;28;20227;-81
2023/10/31 06:01:26;;;;;;;9.93;9.63;;;10.20;99.90;;;;;;5046498;28;20303;-81
2023/10/31 06:03:53;;;;;;;10.23;9.93;;;10.20;99.90;;;;;;5046675;28;20239;-81
2023/10/31 06:06:22;;;;;;;10.20;9.90;;;10.20;99.90;;;;;;5049729;28;20284;-81
2023/10/31 06:08:49;;;;;;;10.13;9.83;;;10.20;99.90;;;;;;5051362;28;20224;-83
2023/10/31 06:11:16;;;;;;;9.90;9.60;;;10.20;99.90;;;;;;5048503;28;20243;-81
2023/10/31 06:13:43;;;;;;;9.93;9.63;;;10.20;99.90;;;;;;5047840;28;20235;-80
2023/10/31 06:16:11;;;;;;;10.10;9.80;;;10.20;99.90;;;;;;5047086;28;20290;-81
2023/10/31 06:18:40;;;;;;;10.03;9.73;;;10.10;99.90;;;;;;5047263;28;20283;-80
2023/10/31 06:21:08;;;;;;;10.37;10.07;;;10.20;99.90;;;;;;5047499;28;20310;-80
2023/10/31 06:23:37;;;;;;;10.03;9.73;;;10.20;99.90;;;;;;5029220;28;20235;-80
2023/10/31 06:26:05;;;;;;;10.40;10.10;;;10.20;99.90;;;;;;5035143;28;20228;-80
2023/10/31 06:28:35;;;;;;;10.43;10.13;;;10.20;99.90;;;;;;5034752;28;20248;-80
2023/10/31 06:31:02;;;;;;;10.20;9.90;;;10.20;99.90;;;;;;5040820;28;20231;-80
2023/10/31 06:33:29;;;;;;;10.10;9.80;;;10.20;99.90;;;;;;5026986;28;20244;-80
2023/10/31 06:35:57;;;;;;;10.40;10.10;;;10.30;99.90;;;;;;5027441;28;20243;-82
2023/10/31 06:38:24;;;;;;;10.20;9.90;;;10.30;99.90;;;;;;5031364;28;20224;-81
2023/10/31 06:40:53;;;;;;;10.30;10.00;;;10.30;99.90;;;;;;5032091;28;20240;-80
2023/10/31 06:43:20;;;;;;;10.23;9.93;;;10.40;99.90;;;;;;5026520;28;20247;-80
2023/10/31 06:45:47;;;;;;;10.80;10.50;;;10.40;99.90;;;;;;5027193;28;20224;-80
2023/10/31 06:48:14;;;;;;;9.97;9.67;;;10.40;99.90;;;;;;5028228;28;20228;-80
2023/10/31 06:50:42;;;;;;;10.40;10.10;;;10.40;99.90;;;;;;5028164;28;20236;-80
2023/10/31 06:53:09;;;;;;;10.17;9.87;;;10.50;99.90;;;;;;5028310;28;20236;-82
2023/10/31 06:55:36;;;;;;;10.27;9.97;;;10.60;99.90;;;;;;5029268;28;20240;-80
2023/10/31 06:58:04;;;;;;;10.10;9.80;;;10.60;99.90;;;;;;5029617;28;20248;-81
2023/10/31 07:00:32;;;;;;;10.20;9.90;;;10.60;99.90;;;;;;5029454;28;20244;-81
2023/10/31 07:03:04;;;;;;;10.20;9.90;;;10.70;99.90;;;;;;5031240;28;20246;-81
2023/10/31 07:05:31;;;;;;;10.07;9.77;;;10.70;99.90;;;;;;5036463;28;20243;-80
2023/10/31 07:07:59;;;;;;;10.40;10.10;;;10.70;99.90;;;;;;5039014;28;20366;-82
2023/10/31 07:10:26;;;;;;;10.27;9.97;;;10.70;99.90;;;;;;5039968;28;20208;-82
2023/10/31 07:12:53;;;;;;;10.30;10.00;;;10.70;99.90;;;;;;5039228;28;20224;-80
2023/10/31 07:15:22;;;;;;;10.30;10.00;;;10.70;99.90;;;;;;5039008;28;20231;-81
2023/10/31 07:17:49;;;;;;;10.20;9.90;;;10.70;99.90;;;;;;5039939;28;20232;-81
2023/10/31 07:20:16;;;;;;;10.23;9.93;;;10.70;99.90;;;;;;5038987;28;20247;-81
2023/10/31 07:22:44;;;;;;;10.10;9.80;;;10.70;99.90;;;;;;5038961;28;20300;-81
2023/10/31 07:25:11;;;;;;;10.17;9.87;;;10.70;99.90;;;;;;5039325;28;20713;-80
2023/10/31 07:27:38;;;;;;;10.00;9.70;;;10.70;99.90;;;;;;5039565;28;20208;-80
2023/10/31 07:30:07;;;;;;;10.10;9.80;;;10.70;99.90;;;;;;5039622;28;20232;-81
2023/10/31 07:32:36;;;;;;;10.33;10.03;;;10.70;99.90;;;;;;5039162;28;20208;-80
2023/10/31 07:35:03;;;;;;;10.40;10.10;;;10.70;99.90;;;;;;5038732;28;20218;-80
2023/10/31 07:37:30;;;;;;;10.10;9.80;;;10.70;99.90;;;;;;5039000;28;20235;-81
2023/10/31 07:39:57;;;;;;;10.00;9.70;;;10.70;99.90;;;;;;5038199;28;20330;-81
2023/10/31 07:42:25;;;;;;;10.10;9.80;;;10.80;99.90;;;;;;5037831;28;20224;-81
2023/10/31 07:44:52;;;;;;;9.80;9.50;;;10.80;99.90;;;;;;5037605;28;20267;-81
2023/10/31 07:47:19;;;;;;;9.53;9.23;;;10.80;99.90;;;;;;5038612;28;20216;-81
2023/10/31 07:49:48;;;;;;;10.07;9.77;;;10.80;99.90;;;;;;5038762;28;20211;-82
2023/10/31 07:52:15;;;;;;;9.80;9.50;;;10.90;99.90;;;;;;5035981;28;20262;-82
2023/10/31 07:54:43;;;;;;;10.10;9.80;;;10.90;99.90;;;;;;5028358;28;20232;-82
2023/10/31 07:57:11;;;;;;;9.70;9.40;;;10.90;99.90;;;;;;5026414;28;20252;-81
2023/10/31 07:59:38;;;;;;;9.80;9.50;;;10.90;99.90;;;;;;5025432;28;20384;-82
2023/10/31 08:02:05;;;;;;;10.30;10.00;;;10.90;99.90;;;;;;5025850;28;20267;-83
2023/10/31 08:04:32;;;;;;;10.43;10.13;;;10.90;99.90;;;;;;5024942;28;20244;-82
2023/10/31 08:07:01;;;;;;;10.30;10.00;;;10.90;99.90;;;;;;5025110;28;20220;-83
2023/10/31 08:09:28;;;;;;;10.00;9.70;;;11.00;99.90;;;;;;5025598;28;20232;-83
2023/10/31 08:11:56;;;;;;;10.10;9.80;;;11.00;99.90;;;;;;5025098;28;20288;-83
2023/10/31 08:14:23;;;;;;;10.17;9.87;;;11.00;99.90;;;;;;5022953;28;20220;-82
2023/10/31 08:16:50;;;;;;;9.97;9.67;;;11.10;99.90;;;;;;5023926;28;20251;-83
2023/10/31 08:19:17;;;;;;;10.37;10.07;;;11.10;99.90;;;;;;5034187;28;20227;-82
2023/10/31 08:21:44;;;;;;;10.10;9.80;;;11.10;99.90;;;;;;5035382;28;20247;-82
2023/10/31 08:24:14;;;;;;;10.10;9.80;;;11.10;99.90;;;;;;5035998;28;20318;-82
2023/10/31 08:26:41;;;;;;;10.00;9.70;;;11.10;99.90;;;;;;5032643;28;20230;-82
2023/10/31 08:29:08;;;;;;;9.60;9.30;;;11.10;99.90;;;;;;5044666;28;20240;-82
2023/10/31 08:31:35;;;;;;;9.80;9.50;;;11.10;99.90;;;;;;5044056;28;20246;-83
2023/10/31 08:34:03;;;;;;;10.10;9.80;;;11.10;99.90;;;;;;5035497;28;20247;-83
2023/10/31 08:36:31;;;;;;;9.80;9.50;;;11.10;99.90;;;;;;5030796;28;20307;-83
2023/10/31 08:38:58;;;;;;;10.17;9.87;;;11.10;99.90;;;;;;5029267;28;20224;-82
2023/10/31 08:41:27;;;;;;;9.90;9.60;;;11.10;99.90;;;;;;5029193;28;20251;-84
2023/10/31 08:43:54;;;;;;;9.90;9.60;;;11.10;99.90;;;;;;5043710;28;20262;-82
2023/10/31 08:46:22;;;;;;;10.07;9.77;;;11.20;99.90;;;;;;5030498;28;20236;-84
2023/10/31 08:48:50;;;;;;;10.23;9.93;;;11.20;99.90;;;;;;5029048;28;20246;-83
2023/10/31 08:51:17;;;;;;;9.90;9.60;;;11.20;99.90;;;;;;5029545;28;20261;-83
2023/10/31 08:53:47;;;;;;;10.40;10.10;;;11.20;99.90;;;;;;5031635;28;20220;-85
2023/10/31 08:56:14;;;;;;;10.10;9.80;;;11.20;99.90;;;;;;5038711;28;20204;-83
2023/10/31 08:58:43;;;;;;;10.53;10.23;;;11.20;99.90;;;;;;5041179;28;20208;-82
2023/10/31 09:01:10;;;;;;;10.27;9.97;;;11.20;99.90;;;;;;5040706;28;20239;-81
2023/10/31 09:03:37;;;;;;;10.53;10.23;;;11.20;99.90;;;;;;5047630;28;20295;-80
2023/10/31 09:06:05;;;;;;;10.13;9.83;;;11.20;99.90;;;;;;5053328;28;20212;-81
2023/10/31 09:08:33;;;;;;;10.40;10.10;;;11.20;99.90;;;;;;5049063;28;20224;-81
2023/10/31 09:11:02;;;;;;;10.37;10.07;;;11.20;99.90;;;;;;5048554;28;20303;-83
2023/10/31 09:13:29;;;;;;;10.60;10.30;;;11.20;99.90;;;;;;5036917;28;20258;-81
2023/10/31 09:15:59;;;;;;;10.40;10.10;;;11.10;99.90;;;;;;5031055;28;20220;-81
2023/10/31 09:18:26;;;;;;;10.47;10.17;;;11.10;99.90;;;;;;5032638;28;20239;-82
2023/10/31 09:20:54;;;;;;;10.10;9.80;;;11.00;99.90;;;;;;5041130;28;20259;-82
2023/10/31 09:23:21;;;;;;;10.20;9.90;;;11.00;99.90;;;;;;5048178;28;20231;-81
2023/10/31 09:25:48;;;;;;;9.80;9.50;;;11.00;99.90;;;;;;5048171;28;20224;-82
2023/10/31 09:28:15;;;;;;;9.93;9.63;;;11.00;99.90;;;;;;5049379;28;20263;-80
2023/10/31 09:30:43;;;;;;;10.20;9.90;;;11.10;99.90;;;;;;5047146;28;20236;-83
2023/10/31 09:33:12;;;;;;;9.87;9.57;;;11.10;99.90;;;;;;5033488;28;20228;-83
2023/10/31 09:35:39;;;;;;;9.97;9.67;;;11.10;99.90;;;;;;5048852;28;20260;-83
2023/10/31 09:38:57;;;;;;;9.90;9.60;;;11.10;99.90;;;;;;5047356;28;20232;-87
2023/10/31 09:41:25;;;;;;;9.90;9.60;;;11.10;99.90;;;;;;5030818;28;20240;-84
2023/10/31 09:43:53;;;;;;;10.00;9.70;;;11.10;99.90;;;;;;5047665;28;20238;-84
2023/10/31 09:46:20;;;;;;;10.07;9.77;;;11.10;99.90;;;;;;5047414;28;20278;-84
2023/10/31 09:48:51;;;;;;;9.73;9.43;;;11.10;99.90;;;;;;5046866;28;20330;-85
2023/10/31 09:51:24;;;;;;;9.60;9.30;;;11.20;99.90;;;;;;5046382;28;20255;-85
2023/10/31 09:53:55;;;;;;;9.13;8.83;;;11.20;99.90;;;;;;5050448;28;20215;-85
2023/10/31 09:56:23;;;;;;;9.40;9.10;;;11.30;99.90;;;;;;5058744;28;20207;-86
2023/10/31 09:58:51;;;;;;;9.30;9.00;;;11.40;99.90;;;;;;5055636;28;20239;-85
2023/10/31 10:01:18;;;;;;;9.43;9.13;;;11.40;99.90;;;;;;5054031;28;20269;-85
2023/10/31 10:03:46;;;;;;;9.57;9.27;;;11.40;99.90;;;;;;5050213;28;20223;-85
2023/10/31 10:06:16;;;;;;;9.53;9.23;;;11.40;99.90;;;;;;5051361;28;20232;-87
2023/10/31 10:08:44;;;;;;;9.90;9.60;;;11.40;99.90;;;;;;5052071;28;20232;-85
2023/10/31 10:11:12;;;;;;;9.80;9.50;;;11.40;99.90;;;;;;5050306;28;20384;-84
2023/10/31 10:13:40;;;;;;;10.30;10.00;;;11.40;99.90;;;;;;5050061;28;20223;-84
2023/10/31 10:16:09;;;;;;;9.90;9.60;;;11.30;99.90;;;;;;5048488;28;20234;-82
2023/10/31 10:18:39;;;;;;;9.87;9.57;;;11.30;99.90;;;;;;5048790;28;20279;-84
2023/10/31 10:21:09;;;;;;;9.73;9.43;;;11.20;99.90;;;;;;5049500;28;20242;-83
2023/10/31 10:23:38;;;;;;;9.80;9.50;;;11.30;99.90;;;;;;5050091;28;20298;-84
2023/10/31 10:26:05;;;;;;;9.80;9.50;;;11.20;99.90;;;;;;5036855;28;20248;-83
2023/10/31 10:28:34;;;;;;;9.80;9.50;;;11.30;99.90;;;;;;5029605;28;20228;-83
2023/10/31 10:31:01;;;;;;;9.70;9.40;;;11.40;99.90;;;;;;5029081;28;20228;-84
2023/10/31 10:33:28;;;;;;;9.70;9.40;;;11.50;99.90;;;;;;5029757;28;20263;-83
2023/10/31 10:36:06;;;;;;;9.57;9.27;;;11.50;99.90;;;;;;5024382;28;20232;-85
2023/10/31 10:38:37;;;;;;;9.50;9.20;;;11.40;99.90;;;;;;5019676;28;20251;-83
2023/10/31 10:41:10;;;;;;;9.50;9.20;;;11.40;99.90;;;;;;5028106;28;20263;-83
2023/10/31 10:43:39;;;;;;;9.70;9.40;;;11.50;99.90;;;;;;5027420;28;20244;-85
2023/10/31 10:46:10;;;;;;;9.67;9.37;;;11.50;99.90;;;;;;5027014;28;20224;-82
2023/10/31 10:48:40;;;;;;;9.70;9.40;;;11.60;99.90;;;;;;5028400;28;20232;-83
2023/10/31 10:51:16;;;;;;;9.90;9.60;;;11.60;99.90;;;;;;5027904;28;20233;-83
2023/10/31 10:53:50;;;;;;;9.87;9.57;;;11.60;99.90;;;;;;5028828;28;20236;-83
2023/10/31 10:56:26;;;;;;;9.93;9.63;;;11.70;99.90;;;;;;5027542;28;20309;-83
2023/10/31 10:59:02;;;;;;;10.03;9.73;;;11.70;99.90;;;;;;5028308;28;20224;-83
2023/10/31 11:01:32;;;;;;;9.90;9.60;;;11.70;99.90;;;;;;5028346;28;20232;-82
2023/10/31 11:04:01;;;;;;;10.00;9.70;;;11.70;99.90;;;;;;5028930;28;20240;-84
2023/10/31 11:06:31;;;;;;;10.10;9.80;;;11.70;99.90;;;;;;5031362;28;20220;-81
2023/10/31 11:09:01;;;;;;;9.90;9.60;;;11.70;99.90;;;;;;5036712;28;20277;-82
2023/10/31 11:11:30;;;;;;;10.10;9.80;;;11.70;99.90;;;;;;5032116;28;20291;-81
2023/10/31 11:13:59;;;;;;;10.43;10.13;;;11.70;99.90;;;;;;5024944;28;20224;-85
2023/10/31 11:16:35;;;;;;;10.20;9.90;;;11.80;99.90;;;;;;5025566;28;20287;-83
2023/10/31 11:19:03;;;;;;;10.50;10.20;;;11.80;99.90;;;;;;5023481;28;20261;-83
2023/10/31 11:21:30;;;;;;;10.10;9.80;;;11.80;99.90;;;;;;5029390;28;20384;-81
2023/10/31 11:24:03;;;;;;;9.83;9.53;;;11.90;99.90;;;;;;5036327;28;20246;-82
2023/10/31 11:26:32;;;;;;;10.07;9.77;;;12.00;99.90;;;;;;5025314;28;20231;-83
2023/10/31 11:29:05;;;;;;;9.77;9.47;;;12.10;99.90;;;;;;5023061;28;20243;-82
2023/10/31 11:31:33;;;;;;;9.80;9.50;;;12.10;99.90;;;;;;5014980;28;20299;-83
2023/10/31 11:34:02;;;;;;;9.57;9.27;;;12.10;99.90;;;;;;5024000;28;20336;-82
2023/10/31 11:36:34;;;;;;;9.60;9.30;;;12.10;99.90;;;;;;5039281;28;20236;-82
2023/10/31 11:39:14;;;;;;;9.80;9.50;;;12.20;99.90;;;;;;5033333;28;20236;-82
2023/10/31 11:41:47;;;;;;;9.70;9.40;;;12.20;99.90;;;;;;5016270;28;20247;-84
2023/10/31 11:44:16;;;;;;;9.80;9.50;;;12.10;99.90;;;;;;5022405;28;20240;-80
2023/10/31 11:46:43;;;;;;;9.90;9.60;;;12.20;99.90;;;;;;5023933;28;20232;-82
2023/10/31 11:49:10;;;;;;;9.97;9.67;;;12.20;99.90;;;;;;5025449;28;20251;-83
2023/10/31 11:51:37;;;;;;;10.10;9.80;;;12.30;99.90;;;;;;5025883;28;20252;-82
2023/10/31 11:54:08;;;;;;;10.10;9.80;;;12.20;99.90;;;;;;5023534;28;20224;-82
2023/10/31 11:56:37;;;;;;;9.67;9.37;;;12.20;99.90;;;;;;5023380;28;20319;-81
2023/10/31 11:59:07;;;;;;;9.97;9.67;;;12.30;99.90;;;;;;5023462;28;20236;-82
2023/10/31 12:01:35;;;;;;;10.00;9.70;;;12.20;99.90;;;;;;5029687;28;20247;-84
2023/10/31 12:04:03;;;;;;;9.93;9.63;;;12.20;99.90;;;;;;5031323;28;20255;-83
2023/10/31 12:06:30;;;;;;;10.07;9.77;;;12.20;99.90;;;;;;5025326;28;20224;-82
2023/10/31 12:09:02;;;;;;;9.80;9.50;;;12.20;99.90;;;;;;5035614;28;20228;-82
2023/10/31 12:11:29;;;;;;;9.63;9.33;;;12.20;99.90;;;;;;5034999;28;20271;-82
2023/10/31 12:14:01;;;;;;;9.73;9.43;;;12.20;99.90;;;;;;5034429;28;20278;-82
2023/10/31 12:16:30;;;;;;;9.70;9.40;;;12.20;99.90;;;;;;5027284;28;20216;-83
2023/10/31 12:18:59;;;;;;;9.80;9.50;;;12.20;99.90;;;;;;5026887;28;20235;-82
2023/10/31 12:21:41;;;;;;;9.77;9.47;;;12.10;99.90;;;;;;5026362;28;20240;-82
2023/10/31 12:24:10;;;;;;;9.80;9.50;;;12.10;99.90;;;;;;5029849;28;20295;-82
2023/10/31 12:26:38;;;;;;;9.60;9.30;;;12.10;99.90;;;;;;5033151;28;20221;-82
2023/10/31 12:29:15;;;;;;;9.70;9.40;;;12.10;99.90;;;;;;5028236;28;20254;-82
2023/10/31 12:31:50;;;;;;;9.47;9.17;;;12.10;99.90;;;;;;5027806;28;20250;-81
2023/10/31 12:34:19;;;;;;;9.57;9.27;;;12.10;99.90;;;;;;5025858;28;20231;-83
2023/10/31 12:36:48;;;;;;;9.53;9.23;;;12.20;99.90;;;;;;5026649;28;20227;-83
2023/10/31 12:39:20;;;;;;;9.37;9.07;;;12.20;99.90;;;;;;5028064;28;20295;-82
2023/10/31 12:41:48;;;;;;;9.30;9.00;;;12.20;99.90;;;;;;5028631;28;20243;-82
2023/10/31 12:44:24;;;;;;;9.40;9.10;;;12.40;99.90;;;;;;5027605;28;20267;-82
2023/10/31 12:46:52;;;;;;;9.37;9.07;;;12.50;99.90;;;;;;5028970;28;20216;-82
2023/10/31 12:49:20;;;;;;;9.43;9.13;;;12.80;99.90;;;;;;5032248;28;20247;-80